sensor_id;sensor_type;location;lat;lon;timestamp;P1;durP1;ratioP1;P2;durP2;ratioP2
33421;SDS011;19763;55.798;37.782;2024-02-04T00:01:03;22.20;;;14.10;;
33421;SDS011;19763;55.798;37.782;2024-02-04T00:03:29;25.50;;;14.55;;
33421;SDS011;19763;55.798;37.782;2024-02-04T00:05:54;20.70;;;13.75;;
33421;SDS011;19763;55.798;37.782;2024-02-04T00:08:20;23.33;;;14.35;;
33421;SDS011;19763;55.798;37.782;2024-02-04T00:10:46;19.73;;;13.45;;
33421;SDS011;19763;55.798;37.782;2024-02-04T00:13:12;20.50;;;12.98;;
33421;SDS011;19763;55.798;37.782;2024-02-04T00:15:37;23.52;;;13.82;;
33421;SDS011;19763;55.798;37.782;2024-02-04T00:18:04;23.85;;;14.45;;
33421;SDS011;19763;55.798;37.782;2024-02-04T00:20:29;20.15;;;13.02;;
33421;SDS011;19763;55.798;37.782;2024-02-04T00:22:58;20.10;;;12.93;;
33421;SDS011;19763;55.798;37.782;2024-02-04T00:25:23;19.45;;;12.98;;
33421;SDS011;19763;55.798;37.782;2024-02-04T00:27:49;19.42;;;12.75;;
33421;SDS011;19763;55.798;37.782;2024-02-04T00:30:15;19.50;;;12.00;;
33421;SDS011;19763;55.798;37.782;2024-02-04T00:32:40;20.13;;;11.75;;
33421;SDS011;19763;55.798;37.782;2024-02-04T00:35:06;16.25;;;11.43;;
33421;SDS011;19763;55.798;37.782;2024-02-04T00:37:32;19.38;;;12.65;;
33421;SDS011;19763;55.798;37.782;2024-02-04T00:39:57;18.23;;;13.00;;
33421;SDS011;19763;55.798;37.782;2024-02-04T00:42:23;18.73;;;12.02;;
33421;SDS011;19763;55.798;37.782;2024-02-04T00:44:48;14.93;;;11.13;;
33421;SDS011;19763;55.798;37.782;2024-02-04T00:47:14;18.13;;;11.68;;
33421;SDS011;19763;55.798;37.782;2024-02-04T00:49:40;16.17;;;11.05;;
33421;SDS011;19763;55.798;37.782;2024-02-04T00:52:05;15.60;;;11.45;;
33421;SDS011;19763;55.798;37.782;2024-02-04T00:54:31;14.80;;;10.63;;
33421;SDS011;19763;55.798;37.782;2024-02-04T00:56:57;16.83;;;10.65;;
33421;SDS011;19763;55.798;37.782;2024-02-04T00:59:23;12.50;;;9.38;;
33421;SDS011;19763;55.798;37.782;2024-02-04T01:01:48;14.77;;;9.82;;
33421;SDS011;19763;55.798;37.782;2024-02-04T01:04:14;13.38;;;9.63;;
33421;SDS011;19763;55.798;37.782;2024-02-04T01:06:40;15.02;;;10.48;;
33421;SDS011;19763;55.798;37.782;2024-02-04T01:09:06;13.13;;;9.07;;
33421;SDS011;19763;55.798;37.782;2024-02-04T01:11:32;13.88;;;9.98;;
33421;SDS011;19763;55.798;37.782;2024-02-04T01:13:58;15.35;;;10.65;;
33421;SDS011;19763;55.798;37.782;2024-02-04T01:16:24;12.68;;;9.77;;
33421;SDS011;19763;55.798;37.782;2024-02-04T01:18:49;13.13;;;9.77;;
33421;SDS011;19763;55.798;37.782;2024-02-04T01:21:15;12.40;;;9.60;;
33421;SDS011;19763;55.798;37.782;2024-02-04T01:23:41;13.35;;;9.38;;
33421;SDS011;19763;55.798;37.782;2024-02-04T01:26:06;13.82;;;9.77;;
33421;SDS011;19763;55.798;37.782;2024-02-04T01:28:32;14.43;;;9.23;;
33421;SDS011;19763;55.798;37.782;2024-02-04T01:30:58;12.90;;;9.20;;
33421;SDS011;19763;55.798;37.782;2024-02-04T01:33:24;15.10;;;9.77;;
33421;SDS011;19763;55.798;37.782;2024-02-04T01:35:50;12.02;;;8.88;;
33421;SDS011;19763;55.798;37.782;2024-02-04T01:38:15;12.07;;;9.20;;
33421;SDS011;19763;55.798;37.782;2024-02-04T01:40:41;15.48;;;9.85;;
33421;SDS011;19763;55.798;37.782;2024-02-04T01:43:07;12.43;;;9.50;;
33421;SDS011;19763;55.798;37.782;2024-02-04T01:45:33;13.45;;;9.45;;
33421;SDS011;19763;55.798;37.782;2024-02-04T01:47:58;13.07;;;9.35;;
33421;SDS011;19763;55.798;37.782;2024-02-04T01:50:24;11.98;;;8.60;;
33421;SDS011;19763;55.798;37.782;2024-02-04T01:52:49;13.05;;;9.23;;
33421;SDS011;19763;55.798;37.782;2024-02-04T01:55:16;14.57;;;9.65;;
33421;SDS011;19763;55.798;37.782;2024-02-04T01:57:44;10.30;;;7.88;;
33421;SDS011;19763;55.798;37.782;2024-02-04T02:00:10;13.02;;;9.35;;
33421;SDS011;19763;55.798;37.782;2024-02-04T02:02:39;13.23;;;9.32;;
33421;SDS011;19763;55.798;37.782;2024-02-04T02:05:06;11.63;;;8.90;;
33421;SDS011;19763;55.798;37.782;2024-02-04T02:07:33;11.88;;;7.88;;
33421;SDS011;19763;55.798;37.782;2024-02-04T02:09:59;12.40;;;8.45;;
33421;SDS011;19763;55.798;37.782;2024-02-04T02:13:07;11.85;;;8.93;;
33421;SDS011;19763;55.798;37.782;2024-02-04T02:15:18;11.60;;;8.75;;
33421;SDS011;19763;55.798;37.782;2024-02-04T02:17:51;11.65;;;8.45;;
33421;SDS011;19763;55.798;37.782;2024-02-04T02:23:07;12.02;;;8.15;;
33421;SDS011;19763;55.798;37.782;2024-02-04T02:25:36;10.30;;;7.80;;
33421;SDS011;19763;55.798;37.782;2024-02-04T02:28:03;11.23;;;7.82;;
33421;SDS011;19763;55.798;37.782;2024-02-04T02:30:29;12.05;;;7.55;;
33421;SDS011;19763;55.798;37.782;2024-02-04T02:32:55;11.20;;;8.20;;
33421;SDS011;19763;55.798;37.782;2024-02-04T02:35:22;9.27;;;8.20;;
33421;SDS011;19763;55.798;37.782;2024-02-04T02:40:22;9.80;;;7.78;;
33421;SDS011;19763;55.798;37.782;2024-02-04T02:42:55;10.32;;;7.15;;
33421;SDS011;19763;55.798;37.782;2024-02-04T02:45:21;7.35;;;6.60;;
33421;SDS011;19763;55.798;37.782;2024-02-04T02:47:50;8.45;;;6.95;;
33421;SDS011;19763;55.798;37.782;2024-02-04T02:50:17;8.88;;;6.80;;
33421;SDS011;19763;55.798;37.782;2024-02-04T02:52:43;10.65;;;7.88;;
33421;SDS011;19763;55.798;37.782;2024-02-04T02:55:09;9.13;;;7.13;;
33421;SDS011;19763;55.798;37.782;2024-02-04T02:57:35;7.28;;;6.55;;
33421;SDS011;19763;55.798;37.782;2024-02-04T03:00:00;9.20;;;6.72;;
33421;SDS011;19763;55.798;37.782;2024-02-04T03:02:26;7.93;;;6.82;;
33421;SDS011;19763;55.798;37.782;2024-02-04T03:04:52;6.85;;;6.13;;
33421;SDS011;19763;55.798;37.782;2024-02-04T03:07:17;6.75;;;5.82;;
33421;SDS011;19763;55.798;37.782;2024-02-04T03:09:43;8.68;;;6.57;;
33421;SDS011;19763;55.798;37.782;2024-02-04T03:12:09;6.75;;;5.60;;
33421;SDS011;19763;55.798;37.782;2024-02-04T03:14:34;7.53;;;5.95;;
33421;SDS011;19763;55.798;37.782;2024-02-04T03:17:00;7.25;;;6.30;;
33421;SDS011;19763;55.798;37.782;2024-02-04T03:19:26;6.53;;;5.50;;
33421;SDS011;19763;55.798;37.782;2024-02-04T03:21:52;7.05;;;5.30;;
33421;SDS011;19763;55.798;37.782;2024-02-04T03:24:17;6.63;;;5.22;;
33421;SDS011;19763;55.798;37.782;2024-02-04T03:26:43;7.13;;;5.72;;
33421;SDS011;19763;55.798;37.782;2024-02-04T03:29:10;6.38;;;4.80;;
33421;SDS011;19763;55.798;37.782;2024-02-04T03:31:36;5.20;;;4.65;;
33421;SDS011;19763;55.798;37.782;2024-02-04T03:34:01;5.13;;;4.63;;
33421;SDS011;19763;55.798;37.782;2024-02-04T03:36:27;5.05;;;3.97;;
33421;SDS011;19763;55.798;37.782;2024-02-04T03:38:52;4.70;;;4.07;;
33421;SDS011;19763;55.798;37.782;2024-02-04T03:41:18;4.45;;;3.53;;
33421;SDS011;19763;55.798;37.782;2024-02-04T03:43:44;4.88;;;3.60;;
33421;SDS011;19763;55.798;37.782;2024-02-04T03:46:16;3.83;;;3.33;;
33421;SDS011;19763;55.798;37.782;2024-02-04T03:48:42;3.88;;;2.92;;
33421;SDS011;19763;55.798;37.782;2024-02-04T03:51:08;8.02;;;4.57;;
33421;SDS011;19763;55.798;37.782;2024-02-04T03:53:41;4.05;;;3.30;;
33421;SDS011;19763;55.798;37.782;2024-02-04T03:56:06;4.18;;;2.92;;
33421;SDS011;19763;55.798;37.782;2024-02-04T03:58:32;2.63;;;2.40;;
33421;SDS011;19763;55.798;37.782;2024-02-04T04:00:58;2.75;;;2.50;;
33421;SDS011;19763;55.798;37.782;2024-02-04T04:03:25;2.13;;;1.88;;
33421;SDS011;19763;55.798;37.782;2024-02-04T04:05:52;2.70;;;2.08;;
33421;SDS011;19763;55.798;37.782;2024-02-04T04:08:18;2.50;;;2.30;;
33421;SDS011;19763;55.798;37.782;2024-02-04T04:10:44;2.28;;;2.08;;
33421;SDS011;19763;55.798;37.782;2024-02-04T04:13:11;2.95;;;2.20;;
33421;SDS011;19763;55.798;37.782;2024-02-04T04:15:37;2.20;;;1.73;;
33421;SDS011;19763;55.798;37.782;2024-02-04T04:18:03;2.30;;;2.08;;
33421;SDS011;19763;55.798;37.782;2024-02-04T04:20:30;2.10;;;1.90;;
33421;SDS011;19763;55.798;37.782;2024-02-04T04:22:55;4.07;;;2.08;;
33421;SDS011;19763;55.798;37.782;2024-02-04T04:25:21;2.53;;;1.80;;
33421;SDS011;19763;55.798;37.782;2024-02-04T04:27:47;1.80;;;1.70;;
33421;SDS011;19763;55.798;37.782;2024-02-04T04:30:12;2.63;;;1.67;;
33421;SDS011;19763;55.798;37.782;2024-02-04T04:32:38;1.85;;;1.63;;
33421;SDS011;19763;55.798;37.782;2024-02-04T04:35:04;1.95;;;1.33;;
33421;SDS011;19763;55.798;37.782;2024-02-04T04:37:30;4.15;;;1.50;;
33421;SDS011;19763;55.798;37.782;2024-02-04T04:39:55;1.55;;;1.45;;
33421;SDS011;19763;55.798;37.782;2024-02-04T04:42:21;2.40;;;1.60;;
33421;SDS011;19763;55.798;37.782;2024-02-04T04:44:47;2.17;;;1.75;;
33421;SDS011;19763;55.798;37.782;2024-02-04T04:47:14;2.72;;;1.48;;
33421;SDS011;19763;55.798;37.782;2024-02-04T04:49:40;3.45;;;1.88;;
33421;SDS011;19763;55.798;37.782;2024-02-04T04:52:06;3.75;;;1.70;;
33421;SDS011;19763;55.798;37.782;2024-02-04T04:54:32;1.95;;;1.55;;
33421;SDS011;19763;55.798;37.782;2024-02-04T04:56:58;3.00;;;1.70;;
33421;SDS011;19763;55.798;37.782;2024-02-04T04:59:24;3.13;;;1.45;;
33421;SDS011;19763;55.798;37.782;2024-02-04T05:01:49;1.58;;;1.38;;
33421;SDS011;19763;55.798;37.782;2024-02-04T05:04:15;1.50;;;1.40;;
33421;SDS011;19763;55.798;37.782;2024-02-04T05:06:44;2.90;;;1.80;;
33421;SDS011;19763;55.798;37.782;2024-02-04T05:09:09;1.42;;;1.33;;
33421;SDS011;19763;55.798;37.782;2024-02-04T05:11:35;4.20;;;1.60;;
33421;SDS011;19763;55.798;37.782;2024-02-04T05:14:01;1.65;;;1.50;;
33421;SDS011;19763;55.798;37.782;2024-02-04T05:16:26;2.22;;;1.60;;
33421;SDS011;19763;55.798;37.782;2024-02-04T05:18:52;2.13;;;1.30;;
33421;SDS011;19763;55.798;37.782;2024-02-04T05:21:18;1.40;;;1.30;;
33421;SDS011;19763;55.798;37.782;2024-02-04T05:23:43;3.75;;;1.70;;
33421;SDS011;19763;55.798;37.782;2024-02-04T05:26:09;1.60;;;1.27;;
33421;SDS011;19763;55.798;37.782;2024-02-04T05:28:34;2.60;;;1.50;;
33421;SDS011;19763;55.798;37.782;2024-02-04T05:31:03;1.58;;;1.48;;
33421;SDS011;19763;55.798;37.782;2024-02-04T05:33:29;3.20;;;1.60;;
33421;SDS011;19763;55.798;37.782;2024-02-04T05:35:54;2.60;;;1.40;;
33421;SDS011;19763;55.798;37.782;2024-02-04T05:38:23;1.95;;;1.52;;
33421;SDS011;19763;55.798;37.782;2024-02-04T05:40:49;2.38;;;1.63;;
33421;SDS011;19763;55.798;37.782;2024-02-04T05:43:14;2.85;;;1.40;;
33421;SDS011;19763;55.798;37.782;2024-02-04T05:45:41;1.70;;;1.60;;
33421;SDS011;19763;55.798;37.782;2024-02-04T05:48:07;1.85;;;1.63;;
33421;SDS011;19763;55.798;37.782;2024-02-04T05:50:33;3.17;;;1.77;;
33421;SDS011;19763;55.798;37.782;2024-02-04T05:52:59;4.43;;;1.80;;
33421;SDS011;19763;55.798;37.782;2024-02-04T05:55:25;3.67;;;1.90;;
33421;SDS011;19763;55.798;37.782;2024-02-04T05:57:51;5.03;;;1.88;;
33421;SDS011;19763;55.798;37.782;2024-02-04T06:00:16;2.92;;;1.67;;
33421;SDS011;19763;55.798;37.782;2024-02-04T06:02:43;3.05;;;1.70;;
33421;SDS011;19763;55.798;37.782;2024-02-04T06:05:12;3.10;;;1.70;;
33421;SDS011;19763;55.798;37.782;2024-02-04T06:07:38;3.83;;;1.85;;
33421;SDS011;19763;55.798;37.782;2024-02-04T06:10:04;1.70;;;1.50;;
33421;SDS011;19763;55.798;37.782;2024-02-04T06:12:33;4.68;;;1.80;;
33421;SDS011;19763;55.798;37.782;2024-02-04T06:14:59;3.20;;;2.13;;
33421;SDS011;19763;55.798;37.782;2024-02-04T06:17:24;4.32;;;2.40;;
33421;SDS011;19763;55.798;37.782;2024-02-04T06:19:50;3.45;;;1.98;;
33421;SDS011;19763;55.798;37.782;2024-02-04T06:22:16;2.88;;;2.08;;
33421;SDS011;19763;55.798;37.782;2024-02-04T06:24:42;2.80;;;2.28;;
33421;SDS011;19763;55.798;37.782;2024-02-04T06:27:08;2.33;;;1.90;;
33421;SDS011;19763;55.798;37.782;2024-02-04T06:29:33;2.25;;;1.52;;
33421;SDS011;19763;55.798;37.782;2024-02-04T06:31:59;4.60;;;1.50;;
33421;SDS011;19763;55.798;37.782;2024-02-04T06:34:25;2.42;;;1.60;;
33421;SDS011;19763;55.798;37.782;2024-02-04T06:36:51;1.75;;;1.35;;
33421;SDS011;19763;55.798;37.782;2024-02-04T06:39:16;2.38;;;1.55;;
33421;SDS011;19763;55.798;37.782;2024-02-04T06:41:42;3.15;;;1.30;;
33421;SDS011;19763;55.798;37.782;2024-02-04T06:44:08;1.77;;;1.30;;
33421;SDS011;19763;55.798;37.782;2024-02-04T06:46:38;2.08;;;1.25;;
33421;SDS011;19763;55.798;37.782;2024-02-04T06:49:04;2.95;;;1.20;;
33421;SDS011;19763;55.798;37.782;2024-02-04T06:51:29;1.70;;;1.23;;
33421;SDS011;19763;55.798;37.782;2024-02-04T06:53:55;1.73;;;1.15;;
33421;SDS011;19763;55.798;37.782;2024-02-04T06:56:21;1.40;;;1.00;;
33421;SDS011;19763;55.798;37.782;2024-02-04T06:58:46;0.80;;;0.70;;
33421;SDS011;19763;55.798;37.782;2024-02-04T07:01:12;1.42;;;0.80;;
33421;SDS011;19763;55.798;37.782;2024-02-04T07:03:38;0.95;;;0.80;;
33421;SDS011;19763;55.798;37.782;2024-02-04T07:06:04;1.42;;;0.90;;
33421;SDS011;19763;55.798;37.782;2024-02-04T07:08:29;1.70;;;1.05;;
33421;SDS011;19763;55.798;37.782;2024-02-04T07:10:55;1.98;;;1.02;;
33421;SDS011;19763;55.798;37.782;2024-02-04T07:13:21;1.17;;;0.82;;
33421;SDS011;19763;55.798;37.782;2024-02-04T07:15:47;1.55;;;0.80;;
33421;SDS011;19763;55.798;37.782;2024-02-04T07:18:13;1.58;;;1.05;;
33421;SDS011;19763;55.798;37.782;2024-02-04T07:20:39;1.65;;;0.82;;
33421;SDS011;19763;55.798;37.782;2024-02-04T07:23:05;1.77;;;0.70;;
33421;SDS011;19763;55.798;37.782;2024-02-04T07:25:31;1.15;;;0.85;;
33421;SDS011;19763;55.798;37.782;2024-02-04T07:27:57;1.38;;;1.00;;
33421;SDS011;19763;55.798;37.782;2024-02-04T07:30:24;2.30;;;1.05;;
33421;SDS011;19763;55.798;37.782;2024-02-04T07:32:50;1.23;;;0.98;;
33421;SDS011;19763;55.798;37.782;2024-02-04T07:35:16;2.00;;;0.88;;
33421;SDS011;19763;55.798;37.782;2024-02-04T07:37:42;3.45;;;1.15;;
33421;SDS011;19763;55.798;37.782;2024-02-04T07:40:07;1.45;;;1.10;;
33421;SDS011;19763;55.798;37.782;2024-02-04T07:42:33;1.77;;;1.08;;
33421;SDS011;19763;55.798;37.782;2024-02-04T07:44:59;0.88;;;0.77;;
33421;SDS011;19763;55.798;37.782;2024-02-04T07:47:26;2.13;;;1.05;;
33421;SDS011;19763;55.798;37.782;2024-02-04T07:49:52;2.08;;;0.95;;
33421;SDS011;19763;55.798;37.782;2024-02-04T07:52:18;3.95;;;1.02;;
33421;SDS011;19763;55.798;37.782;2024-02-04T07:54:43;1.15;;;1.00;;
33421;SDS011;19763;55.798;37.782;2024-02-04T07:57:09;1.98;;;1.40;;
33421;SDS011;19763;55.798;37.782;2024-02-04T07:59:35;2.65;;;1.13;;
33421;SDS011;19763;55.798;37.782;2024-02-04T08:02:01;3.03;;;1.25;;
33421;SDS011;19763;55.798;37.782;2024-02-04T08:04:27;1.17;;;1.08;;
33421;SDS011;19763;55.798;37.782;2024-02-04T08:06:53;1.40;;;0.90;;
33421;SDS011;19763;55.798;37.782;2024-02-04T08:09:19;2.45;;;0.85;;
33421;SDS011;19763;55.798;37.782;2024-02-04T08:11:45;0.85;;;0.70;;
33421;SDS011;19763;55.798;37.782;2024-02-04T08:14:10;2.40;;;1.00;;
33421;SDS011;19763;55.798;37.782;2024-02-04T08:16:36;1.08;;;0.73;;
33421;SDS011;19763;55.798;37.782;2024-02-04T08:19:02;1.85;;;0.75;;
33421;SDS011;19763;55.798;37.782;2024-02-04T08:21:27;1.10;;;0.77;;
33421;SDS011;19763;55.798;37.782;2024-02-04T08:23:56;1.70;;;1.33;;
33421;SDS011;19763;55.798;37.782;2024-02-04T08:26:22;3.70;;;0.90;;
33421;SDS011;19763;55.798;37.782;2024-02-04T08:28:48;1.50;;;0.80;;
33421;SDS011;19763;55.798;37.782;2024-02-04T08:31:13;3.80;;;0.85;;
33421;SDS011;19763;55.798;37.782;2024-02-04T08:33:39;2.53;;;1.20;;
33421;SDS011;19763;55.798;37.782;2024-02-04T08:36:05;1.35;;;0.80;;
33421;SDS011;19763;55.798;37.782;2024-02-04T08:38:31;1.00;;;0.90;;
33421;SDS011;19763;55.798;37.782;2024-02-04T08:40:57;5.90;;;1.75;;
33421;SDS011;19763;55.798;37.782;2024-02-04T08:43:23;1.55;;;0.95;;
33421;SDS011;19763;55.798;37.782;2024-02-04T08:45:48;1.55;;;0.90;;
33421;SDS011;19763;55.798;37.782;2024-02-04T08:48:14;1.35;;;0.80;;
33421;SDS011;19763;55.798;37.782;2024-02-04T08:50:40;1.65;;;0.93;;
33421;SDS011;19763;55.798;37.782;2024-02-04T08:53:06;0.82;;;0.80;;
33421;SDS011;19763;55.798;37.782;2024-02-04T08:55:31;3.38;;;1.02;;
33421;SDS011;19763;55.798;37.782;2024-02-04T08:57:57;2.20;;;0.80;;
33421;SDS011;19763;55.798;37.782;2024-02-04T09:00:23;3.15;;;1.08;;
33421;SDS011;19763;55.798;37.782;2024-02-04T09:02:48;2.22;;;1.05;;
33421;SDS011;19763;55.798;37.782;2024-02-04T09:05:14;4.05;;;2.03;;
33421;SDS011;19763;55.798;37.782;2024-02-04T09:07:41;1.58;;;1.23;;
33421;SDS011;19763;55.798;37.782;2024-02-04T09:10:07;8.70;;;4.15;;
33421;SDS011;19763;55.798;37.782;2024-02-04T09:12:33;2.97;;;1.30;;
33421;SDS011;19763;55.798;37.782;2024-02-04T09:14:59;3.25;;;1.55;;
33421;SDS011;19763;55.798;37.782;2024-02-04T09:17:24;4.07;;;1.73;;
33421;SDS011;19763;55.798;37.782;2024-02-04T09:19:50;2.78;;;1.70;;
33421;SDS011;19763;55.798;37.782;2024-02-04T09:22:16;2.55;;;1.60;;
33421;SDS011;19763;55.798;37.782;2024-02-04T09:24:41;4.30;;;1.80;;
33421;SDS011;19763;55.798;37.782;2024-02-04T09:27:07;4.30;;;2.17;;
33421;SDS011;19763;55.798;37.782;2024-02-04T09:29:33;1.92;;;1.48;;
33421;SDS011;19763;55.798;37.782;2024-02-04T09:31:59;3.45;;;1.88;;
33421;SDS011;19763;55.798;37.782;2024-02-04T09:34:24;2.95;;;1.67;;
33421;SDS011;19763;55.798;37.782;2024-02-04T09:36:50;5.18;;;1.88;;
33421;SDS011;19763;55.798;37.782;2024-02-04T09:39:18;6.75;;;2.30;;
33421;SDS011;19763;55.798;37.782;2024-02-04T09:41:44;5.95;;;2.38;;
33421;SDS011;19763;55.798;37.782;2024-02-04T09:44:10;4.18;;;2.10;;
33421;SDS011;19763;55.798;37.782;2024-02-04T09:46:37;5.88;;;2.40;;
33421;SDS011;19763;55.798;37.782;2024-02-04T09:49:02;12.15;;;4.60;;
33421;SDS011;19763;55.798;37.782;2024-02-04T09:51:29;7.53;;;3.08;;
33421;SDS011;19763;55.798;37.782;2024-02-04T09:53:55;4.63;;;2.00;;
33421;SDS011;19763;55.798;37.782;2024-02-04T09:56:27;10.23;;;2.67;;
33421;SDS011;19763;55.798;37.782;2024-02-04T09:58:54;8.65;;;2.70;;
33421;SDS011;19763;55.798;37.782;2024-02-04T10:01:21;8.10;;;2.47;;
33421;SDS011;19763;55.798;37.782;2024-02-04T10:03:48;5.53;;;2.15;;
33421;SDS011;19763;55.798;37.782;2024-02-04T10:06:14;6.82;;;2.50;;
33421;SDS011;19763;55.798;37.782;2024-02-04T10:08:40;9.23;;;2.50;;
33421;SDS011;19763;55.798;37.782;2024-02-04T10:11:05;6.47;;;2.22;;
33421;SDS011;19763;55.798;37.782;2024-02-04T10:13:41;4.93;;;2.20;;
33421;SDS011;19763;55.798;37.782;2024-02-04T10:16:11;7.05;;;2.60;;
33421;SDS011;19763;55.798;37.782;2024-02-04T10:18:40;7.80;;;3.53;;
33421;SDS011;19763;55.798;37.782;2024-02-04T10:21:14;8.30;;;3.03;;
33421;SDS011;19763;55.798;37.782;2024-02-04T10:23:43;14.07;;;6.80;;
33421;SDS011;19763;55.798;37.782;2024-02-04T10:26:09;4.70;;;2.20;;
33421;SDS011;19763;55.798;37.782;2024-02-04T10:28:36;5.35;;;2.25;;
33421;SDS011;19763;55.798;37.782;2024-02-04T10:31:02;7.25;;;2.60;;
33421;SDS011;19763;55.798;37.782;2024-02-04T10:33:31;11.23;;;2.80;;
33421;SDS011;19763;55.798;37.782;2024-02-04T10:35:57;7.30;;;2.38;;
33421;SDS011;19763;55.798;37.782;2024-02-04T10:38:22;9.65;;;2.90;;
33421;SDS011;19763;55.798;37.782;2024-02-04T10:40:52;18.00;;;6.35;;
33421;SDS011;19763;55.798;37.782;2024-02-04T10:43:20;8.43;;;2.30;;
33421;SDS011;19763;55.798;37.782;2024-02-04T10:45:47;8.30;;;2.83;;
33421;SDS011;19763;55.798;37.782;2024-02-04T10:48:14;11.07;;;2.38;;
33421;SDS011;19763;55.798;37.782;2024-02-04T10:50:43;7.60;;;2.65;;
33421;SDS011;19763;55.798;37.782;2024-02-04T10:53:11;7.13;;;2.20;;
33421;SDS011;19763;55.798;37.782;2024-02-04T10:55:42;9.50;;;2.72;;
33421;SDS011;19763;55.798;37.782;2024-02-04T10:58:12;9.82;;;3.80;;
33421;SDS011;19763;55.798;37.782;2024-02-04T11:00:43;8.07;;;2.65;;
33421;SDS011;19763;55.798;37.782;2024-02-04T11:03:09;10.18;;;3.08;;
33421;SDS011;19763;55.798;37.782;2024-02-04T11:05:38;8.98;;;2.75;;
33421;SDS011;19763;55.798;37.782;2024-02-04T11:08:07;5.45;;;2.05;;
33421;SDS011;19763;55.798;37.782;2024-02-04T11:10:36;5.60;;;2.20;;
33421;SDS011;19763;55.798;37.782;2024-02-04T11:13:02;10.45;;;2.58;;
33421;SDS011;19763;55.798;37.782;2024-02-04T11:15:34;4.72;;;2.10;;
33421;SDS011;19763;55.798;37.782;2024-02-04T11:26:15;6.43;;;2.00;;
33421;SDS011;19763;55.798;37.782;2024-02-04T11:28:42;6.68;;;2.15;;
33421;SDS011;19763;55.798;37.782;2024-02-04T11:31:15;8.98;;;2.50;;
33421;SDS011;19763;55.798;37.782;2024-02-04T11:33:42;6.85;;;1.95;;
33421;SDS011;19763;55.798;37.782;2024-02-04T11:36:12;8.25;;;2.28;;
33421;SDS011;19763;55.798;37.782;2024-02-04T11:38:39;7.65;;;2.40;;
33421;SDS011;19763;55.798;37.782;2024-02-04T11:41:05;7.03;;;1.80;;
33421;SDS011;19763;55.798;37.782;2024-02-04T11:43:35;7.28;;;2.15;;
33421;SDS011;19763;55.798;37.782;2024-02-04T11:46:03;7.40;;;2.05;;
33421;SDS011;19763;55.798;37.782;2024-02-04T11:48:30;9.35;;;2.38;;
33421;SDS011;19763;55.798;37.782;2024-02-04T11:50:59;6.38;;;1.98;;
33421;SDS011;19763;55.798;37.782;2024-02-04T11:53:28;7.53;;;1.88;;
33421;SDS011;19763;55.798;37.782;2024-02-04T11:55:57;6.22;;;1.67;;
33421;SDS011;19763;55.798;37.782;2024-02-04T11:58:25;4.93;;;1.73;;
33421;SDS011;19763;55.798;37.782;2024-02-04T12:00:52;5.20;;;1.95;;
33421;SDS011;19763;55.798;37.782;2024-02-04T12:03:32;5.82;;;1.88;;
33421;SDS011;19763;55.798;37.782;2024-02-04T12:05:59;2.50;;;1.52;;
33421;SDS011;19763;55.798;37.782;2024-02-04T12:08:26;5.15;;;1.83;;
33421;SDS011;19763;55.798;37.782;2024-02-04T12:10:53;3.70;;;1.50;;
33421;SDS011;19763;55.798;37.782;2024-02-04T12:13:19;7.30;;;1.70;;
33421;SDS011;19763;55.798;37.782;2024-02-04T12:15:47;5.43;;;2.00;;
33421;SDS011;19763;55.798;37.782;2024-02-04T12:18:14;4.20;;;1.80;;
33421;SDS011;19763;55.798;37.782;2024-02-04T12:20:41;9.50;;;2.05;;
33421;SDS011;19763;55.798;37.782;2024-02-04T12:23:07;6.03;;;1.70;;
33421;SDS011;19763;55.798;37.782;2024-02-04T12:25:33;2.55;;;1.70;;
33421;SDS011;19763;55.798;37.782;2024-02-04T12:28:00;2.90;;;1.58;;
33421;SDS011;19763;55.798;37.782;2024-02-04T12:30:30;2.80;;;1.60;;
33421;SDS011;19763;55.798;37.782;2024-02-04T12:33:01;5.38;;;1.77;;
33421;SDS011;19763;55.798;37.782;2024-02-04T12:35:29;5.03;;;2.00;;
33421;SDS011;19763;55.798;37.782;2024-02-04T12:37:56;5.55;;;1.80;;
33421;SDS011;19763;55.798;37.782;2024-02-04T12:40:27;4.47;;;1.70;;
33421;SDS011;19763;55.798;37.782;2024-02-04T12:42:55;4.88;;;1.60;;
33421;SDS011;19763;55.798;37.782;2024-02-04T12:45:22;5.25;;;1.50;;
33421;SDS011;19763;55.798;37.782;2024-02-04T12:47:52;2.92;;;1.10;;
33421;SDS011;19763;55.798;37.782;2024-02-04T12:50:21;3.38;;;1.20;;
33421;SDS011;19763;55.798;37.782;2024-02-04T12:52:48;5.45;;;1.20;;
33421;SDS011;19763;55.798;37.782;2024-02-04T12:55:26;3.95;;;1.40;;
33421;SDS011;19763;55.798;37.782;2024-02-04T13:01:01;4.82;;;1.25;;
33421;SDS011;19763;55.798;37.782;2024-02-04T13:03:28;2.90;;;1.30;;
33421;SDS011;19763;55.798;37.782;2024-02-04T13:05:57;2.38;;;1.13;;
33421;SDS011;19763;55.798;37.782;2024-02-04T13:08:23;3.78;;;1.20;;
33421;SDS011;19763;55.798;37.782;2024-02-04T13:10:56;2.38;;;1.05;;
33421;SDS011;19763;55.798;37.782;2024-02-04T13:13:22;2.35;;;1.00;;
33421;SDS011;19763;55.798;37.782;2024-02-04T13:15:54;2.22;;;1.05;;
33421;SDS011;19763;55.798;37.782;2024-02-04T13:18:21;5.18;;;1.30;;
33421;SDS011;19763;55.798;37.782;2024-02-04T13:20:47;4.30;;;1.40;;
33421;SDS011;19763;55.798;37.782;2024-02-04T13:23:12;3.65;;;1.10;;
33421;SDS011;19763;55.798;37.782;2024-02-04T13:25:38;5.43;;;1.42;;
33421;SDS011;19763;55.798;37.782;2024-02-04T13:28:04;4.68;;;1.90;;
33421;SDS011;19763;55.798;37.782;2024-02-04T13:30:29;3.30;;;1.30;;
33421;SDS011;19763;55.798;37.782;2024-02-04T13:32:55;4.18;;;1.50;;
33421;SDS011;19763;55.798;37.782;2024-02-04T13:35:23;4.00;;;1.88;;
33421;SDS011;19763;55.798;37.782;2024-02-04T13:37:49;5.50;;;1.73;;
33421;SDS011;19763;55.798;37.782;2024-02-04T13:40:21;5.57;;;1.50;;
33421;SDS011;19763;55.798;37.782;2024-02-04T13:42:48;2.85;;;1.30;;
33421;SDS011;19763;55.798;37.782;2024-02-04T13:45:14;3.58;;;1.50;;
33421;SDS011;19763;55.798;37.782;2024-02-04T13:47:41;3.95;;;1.30;;
33421;SDS011;19763;55.798;37.782;2024-02-04T13:50:10;2.88;;;1.48;;
33421;SDS011;19763;55.798;37.782;2024-02-04T13:52:36;7.28;;;1.63;;
33421;SDS011;19763;55.798;37.782;2024-02-04T13:55:02;2.95;;;1.10;;
33421;SDS011;19763;55.798;37.782;2024-02-04T13:57:32;5.78;;;1.65;;
33421;SDS011;19763;55.798;37.782;2024-02-04T13:59:58;4.78;;;1.33;;
33421;SDS011;19763;55.798;37.782;2024-02-04T14:02:24;3.67;;;1.30;;
33421;SDS011;19763;55.798;37.782;2024-02-04T14:04:51;3.65;;;1.77;;
33421;SDS011;19763;55.798;37.782;2024-02-04T14:07:18;5.57;;;1.73;;
33421;SDS011;19763;55.798;37.782;2024-02-04T14:09:44;5.32;;;1.60;;
33421;SDS011;19763;55.798;37.782;2024-02-04T14:12:11;5.78;;;1.38;;
33421;SDS011;19763;55.798;37.782;2024-02-04T14:14:38;3.47;;;1.30;;
33421;SDS011;19763;55.798;37.782;2024-02-04T14:17:04;4.95;;;1.77;;
33421;SDS011;19763;55.798;37.782;2024-02-04T14:19:30;4.45;;;1.70;;
33421;SDS011;19763;55.798;37.782;2024-02-04T14:21:55;6.25;;;1.58;;
33421;SDS011;19763;55.798;37.782;2024-02-04T14:24:21;5.30;;;1.35;;
33421;SDS011;19763;55.798;37.782;2024-02-04T14:26:47;4.30;;;1.55;;
33421;SDS011;19763;55.798;37.782;2024-02-04T14:29:13;3.38;;;1.52;;
33421;SDS011;19763;55.798;37.782;2024-02-04T14:31:39;3.72;;;1.38;;
33421;SDS011;19763;55.798;37.782;2024-02-04T14:34:05;4.95;;;1.30;;
33421;SDS011;19763;55.798;37.782;2024-02-04T14:36:30;3.10;;;1.40;;
33421;SDS011;19763;55.798;37.782;2024-02-04T14:38:56;2.95;;;1.08;;
33421;SDS011;19763;55.798;37.782;2024-02-04T14:41:23;3.97;;;1.58;;
33421;SDS011;19763;55.798;37.782;2024-02-04T14:43:48;3.05;;;1.20;;